sensor_id;sensor_type;location;lat;lon;timestamp;pressure;altitude;pressure_sealevel;temperature;humidity
17785;BME280;9016;53.582;10.062;2023-01-31T00:01:54;101582.09;;;6.55;73.06
17785;BME280;9016;53.582;10.062;2023-01-31T00:04:22;101584.97;;;6.48;72.60
17785;BME280;9016;53.582;10.062;2023-01-31T00:06:50;101576.47;;;6.37;72.85
17785;BME280;9016;53.582;10.062;2023-01-31T00:09:19;101596.00;;;6.33;73.40
17785;BME280;9016;53.582;10.062;2023-01-31T00:11:47;101591.59;;;6.33;73.82
17785;BME280;9016;53.582;10.062;2023-01-31T00:14:18;101596.97;;;6.30;73.87
17785;BME280;9016;53.582;10.062;2023-01-31T00:16:46;101598.97;;;6.22;74.42
17785;BME280;9016;53.582;10.062;2023-01-31T00:19:15;101593.81;;;6.18;74.37
17785;BME280;9016;53.582;10.062;2023-01-31T00:21:43;101598.34;;;6.13;74.88
17785;BME280;9016;53.582;10.062;2023-01-31T00:24:12;101594.94;;;6.09;75.69
17785;BME280;9016;53.582;10.062;2023-01-31T00:26:40;101593.13;;;6.11;75.65
17785;BME280;9016;53.582;10.062;2023-01-31T00:29:10;101601.41;;;5.99;75.76
17785;BME280;9016;53.582;10.062;2023-01-31T00:31:39;101609.16;;;6.05;75.32
17785;BME280;9016;53.582;10.062;2023-01-31T00:34:07;101612.69;;;6.06;75.54
17785;BME280;9016;53.582;10.062;2023-01-31T00:36:35;101605.41;;;6.14;75.40
17785;BME280;9016;53.582;10.062;2023-01-31T00:39:06;101616.41;;;6.29;75.36
17785;BME280;9016;53.582;10.062;2023-01-31T00:41:35;101609.25;;;6.33;74.47
17785;BME280;9016;53.582;10.062;2023-01-31T00:44:04;101622.47;;;6.34;74.75
17785;BME280;9016;53.582;10.062;2023-01-31T00:46:33;101632.03;;;6.38;74.26
17785;BME280;9016;53.582;10.062;2023-01-31T00:49:03;101630.84;;;6.48;75.72
17785;BME280;9016;53.582;10.062;2023-01-31T00:51:31;101640.94;;;6.36;77.75
17785;BME280;9016;53.582;10.062;2023-01-31T00:54:00;101645.91;;;6.16;79.53
17785;BME280;9016;53.582;10.062;2023-01-31T00:56:28;101659.91;;;5.87;81.37
17785;BME280;9016;53.582;10.062;2023-01-31T00:58:56;101640.34;;;5.60;83.14
17785;BME280;9016;53.582;10.062;2023-01-31T01:01:27;101640.53;;;5.53;84.65
17785;BME280;9016;53.582;10.062;2023-01-31T01:03:56;101642.19;;;5.57;84.34
17785;BME280;9016;53.582;10.062;2023-01-31T01:06:26;101644.06;;;5.52;85.15
17785;BME280;9016;53.582;10.062;2023-01-31T01:08:54;101643.88;;;5.59;85.48
17785;BME280;9016;53.582;10.062;2023-01-31T01:11:25;101620.25;;;5.52;85.14
17785;BME280;9016;53.582;10.062;2023-01-31T01:13:53;101616.78;;;5.50;84.75
17785;BME280;9016;53.582;10.062;2023-01-31T01:16:23;101628.19;;;5.52;84.83
17785;BME280;9016;53.582;10.062;2023-01-31T01:18:51;101634.56;;;5.45;85.17
17785;BME280;9016;53.582;10.062;2023-01-31T01:21:22;101630.31;;;5.38;85.20
17785;BME280;9016;53.582;10.062;2023-01-31T01:23:54;101641.09;;;5.30;85.67
17785;BME280;9016;53.582;10.062;2023-01-31T01:26:23;101640.22;;;5.30;86.38
17785;BME280;9016;53.582;10.062;2023-01-31T01:28:53;101635.81;;;5.30;86.50
17785;BME280;9016;53.582;10.062;2023-01-31T01:31:23;101635.75;;;5.32;86.19
17785;BME280;9016;53.582;10.062;2023-01-31T01:33:57;101633.16;;;5.30;86.73
17785;BME280;9016;53.582;10.062;2023-01-31T01:36:26;101634.91;;;5.31;86.57
17785;BME280;9016;53.582;10.062;2023-01-31T01:38:56;101632.28;;;5.31;86.04
17785;BME280;9016;53.582;10.062;2023-01-31T01:41:24;101629.59;;;5.33;86.68
17785;BME280;9016;53.582;10.062;2023-01-31T01:43:54;101636.59;;;5.34;86.46
17785;BME280;9016;53.582;10.062;2023-01-31T01:46:25;101634.91;;;5.31;86.62
17785;BME280;9016;53.582;10.062;2023-01-31T01:48:59;101625.34;;;5.26;86.81
17785;BME280;9016;53.582;10.062;2023-01-31T01:51:29;101627.88;;;5.30;86.76
17785;BME280;9016;53.582;10.062;2023-01-31T01:54:04;101637.50;;;5.33;87.32
17785;BME280;9016;53.582;10.062;2023-01-31T01:56:37;101627.69;;;5.38;87.02
17785;BME280;9016;53.582;10.062;2023-01-31T01:59:08;101630.22;;;5.42;86.25
17785;BME280;9016;53.582;10.062;2023-01-31T02:01:37;101626.81;;;5.37;86.58
17785;BME280;9016;53.582;10.062;2023-01-31T02:04:08;101632.06;;;5.39;87.01
17785;BME280;9016;53.582;10.062;2023-01-31T02:06:38;101641.81;;;5.37;86.67
17785;BME280;9016;53.582;10.062;2023-01-31T02:09:12;101641.72;;;5.40;86.58
17785;BME280;9016;53.582;10.062;2023-01-31T02:11:43;101653.19;;;5.40;86.71
17785;BME280;9016;53.582;10.062;2023-01-31T02:14:11;101649.38;;;5.50;86.53
17785;BME280;9016;53.582;10.062;2023-01-31T02:16:39;101643.75;;;5.64;85.86
17785;BME280;9016;53.582;10.062;2023-01-31T02:19:20;101643.53;;;5.73;85.70
17785;BME280;9016;53.582;10.062;2023-01-31T02:22:09;101647.69;;;5.83;85.94
17785;BME280;9016;53.582;10.062;2023-01-31T02:25:05;101661.34;;;6.00;84.83
17785;BME280;9016;53.582;10.062;2023-01-31T02:33:51;101649.59;;;6.10;83.06
17785;BME280;9016;53.582;10.062;2023-01-31T02:36:29;101663.00;;;6.04;82.80
17785;BME280;9016;53.582;10.062;2023-01-31T02:39:08;101663.97;;;6.00;83.47
17785;BME280;9016;53.582;10.062;2023-01-31T02:41:42;101664.94;;;5.97;83.71
17785;BME280;9016;53.582;10.062;2023-01-31T02:44:19;101660.25;;;6.07;83.36
17785;BME280;9016;53.582;10.062;2023-01-31T02:47:16;101656.63;;;6.11;83.10
17785;BME280;9016;53.582;10.062;2023-01-31T02:49:53;101674.25;;;6.11;83.10
17785;BME280;9016;53.582;10.062;2023-01-31T02:52:38;101682.13;;;6.14;82.89
17785;BME280;9016;53.582;10.062;2023-01-31T02:55:12;101666.22;;;6.15;83.26
17785;BME280;9016;53.582;10.062;2023-01-31T02:58:01;101671.66;;;6.09;83.08
17785;BME280;9016;53.582;10.062;2023-01-31T03:00:32;101673.41;;;6.10;83.29
17785;BME280;9016;53.582;10.062;2023-01-31T03:03:04;101678.53;;;6.16;84.06
17785;BME280;9016;53.582;10.062;2023-01-31T03:05:34;101663.38;;;6.23;83.55
17785;BME280;9016;53.582;10.062;2023-01-31T03:08:02;101666.84;;;6.25;83.73
17785;BME280;9016;53.582;10.062;2023-01-31T03:10:52;101670.22;;;6.30;82.96
17785;BME280;9016;53.582;10.062;2023-01-31T03:13:34;101658.94;;;6.23;82.61
17785;BME280;9016;53.582;10.062;2023-01-31T03:16:17;101659.09;;;6.17;82.93
17785;BME280;9016;53.582;10.062;2023-01-31T03:19:08;101664.50;;;6.14;83.46
17785;BME280;9016;53.582;10.062;2023-01-31T03:21:44;101658.63;;;6.03;84.57
17785;BME280;9016;53.582;10.062;2023-01-31T03:24:15;101657.03;;;5.96;85.37
17785;BME280;9016;53.582;10.062;2023-01-31T03:26:44;101649.91;;;5.98;85.43
17785;BME280;9016;53.582;10.062;2023-01-31T03:29:14;101652.50;;;6.01;84.84
17785;BME280;9016;53.582;10.062;2023-01-31T03:31:47;101639.22;;;6.03;85.43
17785;BME280;9016;53.582;10.062;2023-01-31T03:34:16;101633.97;;;6.01;85.14
17785;BME280;9016;53.582;10.062;2023-01-31T03:36:51;101626.22;;;5.95;85.31
17785;BME280;9016;53.582;10.062;2023-01-31T03:39:28;101630.56;;;5.97;85.73
17785;BME280;9016;53.582;10.062;2023-01-31T03:42:03;101622.63;;;5.96;85.66
17785;BME280;9016;53.582;10.062;2023-01-31T03:44:40;101634.00;;;5.99;85.88
17785;BME280;9016;53.582;10.062;2023-01-31T03:47:14;101641.19;;;5.94;85.90
17785;BME280;9016;53.582;10.062;2023-01-31T03:49:45;101643.91;;;5.93;86.07
17785;BME280;9016;53.582;10.062;2023-01-31T03:52:18;101639.19;;;6.04;86.58
17785;BME280;9016;53.582;10.062;2023-01-31T03:54:52;101642.75;;;6.03;85.69
17785;BME280;9016;53.582;10.062;2023-01-31T03:57:23;101644.47;;;6.04;86.32
17785;BME280;9016;53.582;10.062;2023-01-31T03:59:54;101649.66;;;6.07;86.21
17785;BME280;9016;53.582;10.062;2023-01-31T04:02:28;101641.56;;;6.13;86.13
17785;BME280;9016;53.582;10.062;2023-01-31T04:05:04;101640.00;;;6.06;85.48
17785;BME280;9016;53.582;10.062;2023-01-31T04:07:35;101646.28;;;6.02;86.16
17785;BME280;9016;53.582;10.062;2023-01-31T04:10:06;101641.09;;;5.99;86.07
17785;BME280;9016;53.582;10.062;2023-01-31T04:12:37;101646.97;;;6.10;85.93
17785;BME280;9016;53.582;10.062;2023-01-31T04:15:06;101654.81;;;6.13;85.88
17785;BME280;9016;53.582;10.062;2023-01-31T04:17:35;101645.97;;;6.14;86.17
17785;BME280;9016;53.582;10.062;2023-01-31T04:20:03;101643.31;;;6.14;85.96
17785;BME280;9016;53.582;10.062;2023-01-31T04:22:32;101639.59;;;6.21;86.05
17785;BME280;9016;53.582;10.062;2023-01-31T04:25:01;101640.28;;;6.28;85.95
17785;BME280;9016;53.582;10.062;2023-01-31T04:27:29;101626.03;;;6.32;85.86
17785;BME280;9016;53.582;10.062;2023-01-31T04:29:57;101624.19;;;6.35;85.51
17785;BME280;9016;53.582;10.062;2023-01-31T04:32:25;101628.56;;;6.36;86.01
17785;BME280;9016;53.582;10.062;2023-01-31T04:34:53;101621.69;;;6.31;85.85
17785;BME280;9016;53.582;10.062;2023-01-31T04:37:21;101616.59;;;6.23;86.38
17785;BME280;9016;53.582;10.062;2023-01-31T04:39:49;101622.66;;;6.27;86.98
17785;BME280;9016;53.582;10.062;2023-01-31T04:42:18;101627.00;;;6.29;86.67
17785;BME280;9016;53.582;10.062;2023-01-31T04:44:46;101623.34;;;6.33;86.61
17785;BME280;9016;53.582;10.062;2023-01-31T04:47:14;101625.59;;;6.47;87.11
17785;BME280;9016;53.582;10.062;2023-01-31T04:49:41;101635.94;;;6.56;86.63
17785;BME280;9016;53.582;10.062;2023-01-31T04:52:10;101633.31;;;6.54;85.97
17785;BME280;9016;53.582;10.062;2023-01-31T04:54:38;101636.81;;;6.56;87.18
17785;BME280;9016;53.582;10.062;2023-01-31T04:57:07;101619.31;;;6.51;86.78
17785;BME280;9016;53.582;10.062;2023-01-31T04:59:36;101647.91;;;6.38;88.13
17785;BME280;9016;53.582;10.062;2023-01-31T05:02:04;101640.88;;;6.37;88.66
17785;BME280;9016;53.582;10.062;2023-01-31T05:04:33;101647.22;;;6.32;88.95
17785;BME280;9016;53.582;10.062;2023-01-31T05:07:00;101636.53;;;6.35;89.75
17785;BME280;9016;53.582;10.062;2023-01-31T05:09:28;101640.22;;;6.29;89.91
17785;BME280;9016;53.582;10.062;2023-01-31T05:11:57;101632.94;;;6.37;89.99
17785;BME280;9016;53.582;10.062;2023-01-31T05:14:24;101632.84;;;6.40;90.04
17785;BME280;9016;53.582;10.062;2023-01-31T05:16:54;101629.19;;;6.44;89.35
17785;BME280;9016;53.582;10.062;2023-01-31T05:19:22;101624.72;;;6.46;89.25
17785;BME280;9016;53.582;10.062;2023-01-31T05:21:49;101618.63;;;6.44;88.61
17785;BME280;9016;53.582;10.062;2023-01-31T05:24:26;101617.72;;;6.45;89.24
17785;BME280;9016;53.582;10.062;2023-01-31T05:26:55;101622.31;;;6.39;88.98
17785;BME280;9016;53.582;10.062;2023-01-31T05:29:25;101612.94;;;6.27;89.71
17785;BME280;9016;53.582;10.062;2023-01-31T05:31:56;101610.16;;;6.32;90.33
17785;BME280;9016;53.582;10.062;2023-01-31T05:34:25;101607.34;;;6.38;89.49
17785;BME280;9016;53.582;10.062;2023-01-31T05:36:54;101608.41;;;6.32;89.75
17785;BME280;9016;53.582;10.062;2023-01-31T05:39:22;101609.22;;;6.34;90.23
17785;BME280;9016;53.582;10.062;2023-01-31T05:41:51;101601.28;;;6.34;90.15
17785;BME280;9016;53.582;10.062;2023-01-31T05:44:19;101597.59;;;6.38;89.36
17785;BME280;9016;53.582;10.062;2023-01-31T05:46:47;101591.38;;;6.41;88.97
17785;BME280;9016;53.582;10.062;2023-01-31T05:49:17;101593.34;;;6.34;89.11
17785;BME280;9016;53.582;10.062;2023-01-31T05:51:45;101584.84;;;6.23;89.87
17785;BME280;9016;53.582;10.062;2023-01-31T05:54:12;101581.88;;;6.34;90.23
17785;BME280;9016;53.582;10.062;2023-01-31T05:56:40;101580.94;;;6.36;89.38
17785;BME280;9016;53.582;10.062;2023-01-31T05:59:08;101582.78;;;6.33;89.28
17785;BME280;9016;53.582;10.062;2023-01-31T06:01:36;101577.41;;;6.36;89.19
17785;BME280;9016;53.582;10.062;2023-01-31T06:04:04;101586.22;;;6.36;89.08
17785;BME280;9016;53.582;10.062;2023-01-31T06:06:33;101583.03;;;6.24;89.32
17785;BME280;9016;53.582;10.062;2023-01-31T06:09:01;101583.69;;;6.32;89.80
17785;BME280;9016;53.582;10.062;2023-01-31T06:11:29;101581.09;;;6.30;88.90
17785;BME280;9016;53.582;10.062;2023-01-31T06:13:57;101580.09;;;6.34;88.72
17785;BME280;9016;53.582;10.062;2023-01-31T06:16:25;101578.19;;;6.39;88.50
17785;BME280;9016;53.582;10.062;2023-01-31T06:18:53;101571.28;;;6.34;88.37
17785;BME280;9016;53.582;10.062;2023-01-31T06:21:22;101567.69;;;6.36;88.51
17785;BME280;9016;53.582;10.062;2023-01-31T06:23:51;101573.06;;;6.33;89.09
17785;BME280;9016;53.582;10.062;2023-01-31T06:26:19;101572.19;;;6.33;88.02
17785;BME280;9016;53.582;10.062;2023-01-31T06:28:47;101572.16;;;6.34;88.24
17785;BME280;9016;53.582;10.062;2023-01-31T06:31:15;101564.13;;;6.37;88.68
17785;BME280;9016;53.582;10.062;2023-01-31T06:33:43;101567.59;;;6.39;88.59
17785;BME280;9016;53.582;10.062;2023-01-31T06:36:13;101572.72;;;6.44;88.25
17785;BME280;9016;53.582;10.062;2023-01-31T06:38:48;101553.25;;;6.46;87.96
17785;BME280;9016;53.582;10.062;2023-01-31T06:41:18;101562.94;;;6.47;87.16
17785;BME280;9016;53.582;10.062;2023-01-31T06:43:45;101565.84;;;6.38;87.66
17785;BME280;9016;53.582;10.062;2023-01-31T06:46:13;101555.06;;;6.44;87.11
17785;BME280;9016;53.582;10.062;2023-01-31T06:48:41;101545.03;;;6.55;87.34
17785;BME280;9016;53.582;10.062;2023-01-31T06:51:10;101540.66;;;6.54;86.56
17785;BME280;9016;53.582;10.062;2023-01-31T06:53:38;101536.53;;;6.44;86.81
17785;BME280;9016;53.582;10.062;2023-01-31T06:56:06;101538.75;;;6.30;87.18
17785;BME280;9016;53.582;10.062;2023-01-31T06:58:36;101526.97;;;6.11;88.18
17785;BME280;9016;53.582;10.062;2023-01-31T07:01:04;101523.16;;;6.21;88.09
17785;BME280;9016;53.582;10.062;2023-01-31T07:03:33;101535.13;;;6.34;87.10
17785;BME280;9016;53.582;10.062;2023-01-31T07:06:01;101509.66;;;6.30;87.96
17785;BME280;9016;53.582;10.062;2023-01-31T07:08:29;101508.66;;;6.33;87.66
17785;BME280;9016;53.582;10.062;2023-01-31T07:11:01;101505.34;;;6.26;87.39
17785;BME280;9016;53.582;10.062;2023-01-31T07:13:30;101490.13;;;6.33;87.67
17785;BME280;9016;53.582;10.062;2023-01-31T07:15:59;101491.25;;;6.26;87.44
17785;BME280;9016;53.582;10.062;2023-01-31T07:18:27;101497.38;;;6.28;87.68
17785;BME280;9016;53.582;10.062;2023-01-31T07:20:55;101490.13;;;6.34;87.57
17785;BME280;9016;53.582;10.062;2023-01-31T07:23:23;101475.00;;;6.38;88.14
17785;BME280;9016;53.582;10.062;2023-01-31T07:25:51;101467.38;;;6.27;87.69
17785;BME280;9016;53.582;10.062;2023-01-31T07:28:19;101465.59;;;6.28;87.53
17785;BME280;9016;53.582;10.062;2023-01-31T07:30:47;101466.00;;;6.43;87.87
17785;BME280;9016;53.582;10.062;2023-01-31T07:33:18;101453.09;;;6.33;87.01
17785;BME280;9016;53.582;10.062;2023-01-31T07:35:46;101453.59;;;6.45;87.22
17785;BME280;9016;53.582;10.062;2023-01-31T07:38:15;101447.41;;;6.45;86.47
17785;BME280;9016;53.582;10.062;2023-01-31T07:40:43;101446.34;;;6.50;86.68
17785;BME280;9016;53.582;10.062;2023-01-31T07:43:11;101434.75;;;6.54;86.91
17785;BME280;9016;53.582;10.062;2023-01-31T07:45:39;101426.66;;;6.59;87.01
17785;BME280;9016;53.582;10.062;2023-01-31T07:48:08;101436.34;;;6.60;86.72
17785;BME280;9016;53.582;10.062;2023-01-31T07:50:37;101434.28;;;6.68;86.40
17785;BME280;9016;53.582;10.062;2023-01-31T07:53:05;101422.47;;;6.78;86.28
17785;BME280;9016;53.582;10.062;2023-01-31T07:55:33;101421.72;;;6.74;85.98
17785;BME280;9016;53.582;10.062;2023-01-31T07:58:01;101417.13;;;6.79;86.04
17785;BME280;9016;53.582;10.062;2023-01-31T08:00:29;101424.38;;;6.74;85.71
17785;BME280;9016;53.582;10.062;2023-01-31T08:03:22;101415.09;;;6.61;86.92
17785;BME280;9016;53.582;10.062;2023-01-31T08:06:03;101411.81;;;6.53;86.78
17785;BME280;9016;53.582;10.062;2023-01-31T08:08:34;101402.56;;;6.66;87.70
17785;BME280;9016;53.582;10.062;2023-01-31T08:11:02;101395.38;;;6.70;86.96
17785;BME280;9016;53.582;10.062;2023-01-31T08:13:31;101398.47;;;6.82;87.32
17785;BME280;9016;53.582;10.062;2023-01-31T08:16:01;101397.09;;;6.97;86.32
17785;BME280;9016;53.582;10.062;2023-01-31T08:18:29;101384.19;;;6.86;85.94
17785;BME280;9016;53.582;10.062;2023-01-31T08:20:58;101379.63;;;6.91;86.70
17785;BME280;9016;53.582;10.062;2023-01-31T08:23:27;101384.50;;;7.03;86.49
17785;BME280;9016;53.582;10.062;2023-01-31T08:26:01;101386.44;;;6.98;86.43
17785;BME280;9016;53.582;10.062;2023-01-31T08:28:29;101386.13;;;7.08;86.34
17785;BME280;9016;53.582;10.062;2023-01-31T08:30:58;101384.44;;;7.05;85.41
17785;BME280;9016;53.582;10.062;2023-01-31T08:33:35;101378.78;;;7.14;85.44
17785;BME280;9016;53.582;10.062;2023-01-31T08:36:11;101366.53;;;7.12;85.38
17785;BME280;9016;53.582;10.062;2023-01-31T08:38:40;101366.53;;;7.12;84.76
17785;BME280;9016;53.582;10.062;2023-01-31T08:41:08;101364.66;;;7.15;85.56
17785;BME280;9016;53.582;10.062;2023-01-31T08:43:36;101364.69;;;7.14;85.65
17785;BME280;9016;53.582;10.062;2023-01-31T08:46:22;101361.38;;;7.07;85.02
17785;BME280;9016;53.582;10.062;2023-01-31T08:48:51;101356.56;;;7.18;85.97
17785;BME280;9016;53.582;10.062;2023-01-31T08:51:19;101350.69;;;7.10;84.92
17785;BME280;9016;53.582;10.062;2023-01-31T08:53:48;101341.59;;;7.17;85.20
17785;BME280;9016;53.582;10.062;2023-01-31T08:56:17;101342.28;;;7.22;84.32
17785;BME280;9016;53.582;10.062;2023-01-31T08:58:47;101329.09;;;7.21;84.38
17785;BME280;9016;53.582;10.062;2023-01-31T09:01:17;101328.50;;;7.13;85.09
17785;BME280;9016;53.582;10.062;2023-01-31T09:03:48;101317.81;;;7.16;85.31
17785;BME280;9016;53.582;10.062;2023-01-31T09:06:23;101319.31;;;7.23;84.93
17785;BME280;9016;53.582;10.062;2023-01-31T09:08:55;101317.41;;;7.26;85.20
17785;BME280;9016;53.582;10.062;2023-01-31T09:11:26;101310.59;;;7.19;85.59
17785;BME280;9016;53.582;10.062;2023-01-31T09:13:54;101310.03;;;7.11;85.68
17785;BME280;9016;53.582;10.062;2023-01-31T09:16:22;101295.19;;;7.29;85.77
17785;BME280;9016;53.582;10.062;2023-01-31T09:18:52;101282.72;;;7.32;85.74
17785;BME280;9016;53.582;10.062;2023-01-31T09:21:20;101282.53;;;7.37;85.74
17785;BME280;9016;53.582;10.062;2023-01-31T09:23:55;101277.53;;;7.29;86.07
17785;BME280;9016;53.582;10.062;2023-01-31T09:26:23;101273.06;;;7.07;86.43
17785;BME280;9016;53.582;10.062;2023-01-31T09:28:51;101265.91;;;7.10;87.05
17785;BME280;9016;53.582;10.062;2023-01-31T09:31:20;101270.56;;;7.03;87.93
17785;BME280;9016;53.582;10.062;2023-01-31T09:33:48;101259.50;;;7.16;87.07
17785;BME280;9016;53.582;10.062;2023-01-31T09:36:18;101256.88;;;7.16;87.73
17785;BME280;9016;53.582;10.062;2023-01-31T09:38:46;101258.91;;;7.31;86.58
17785;BME280;9016;53.582;10.062;2023-01-31T09:41:21;101245.66;;;7.31;86.51
17785;BME280;9016;53.582;10.062;2023-01-31T09:43:52;101247.25;;;7.35;87.49
17785;BME280;9016;53.582;10.062;2023-01-31T09:46:25;101243.84;;;7.10;87.67
17785;BME280;9016;53.582;10.062;2023-01-31T09:48:58;101240.97;;;7.16;88.56
17785;BME280;9016;53.582;10.062;2023-01-31T09:51:32;101224.28;;;7.12;89.08
17785;BME280;9016;53.582;10.062;2023-01-31T09:54:01;101245.53;;;7.11;90.00
17785;BME280;9016;53.582;10.062;2023-01-31T09:56:37;101224.19;;;6.92;90.29
17785;BME280;9016;53.582;10.062;2023-01-31T09:59:13;101228.78;;;6.87;92.21
17785;BME280;9016;53.582;10.062;2023-01-31T10:01:50;101227.56;;;6.95;92.07
17785;BME280;9016;53.582;10.062;2023-01-31T10:04:38;101218.88;;;6.92;92.79
17785;BME280;9016;53.582;10.062;2023-01-31T10:07:14;101208.81;;;7.01;93.57
17785;BME280;9016;53.582;10.062;2023-01-31T10:09:45;101220.22;;;7.03;92.86
17785;BME280;9016;53.582;10.062;2023-01-31T10:12:19;101197.34;;;7.01;92.48
17785;BME280;9016;53.582;10.062;2023-01-31T10:14:51;101199.72;;;6.85;93.88
17785;BME280;9016;53.582;10.062;2023-01-31T10:17:25;101196.78;;;6.93;94.70
17785;BME280;9016;53.582;10.062;2023-01-31T10:20:00;101191.13;;;7.02;94.16
17785;BME280;9016;53.582;10.062;2023-01-31T10:22:34;101180.47;;;7.03;95.26
17785;BME280;9016;53.582;10.062;2023-01-31T10:25:16;101183.31;;;6.99;95.12
17785;BME280;9016;53.582;10.062;2023-01-31T10:27:49;101186.66;;;7.04;95.40
17785;BME280;9016;53.582;10.062;2023-01-31T10:30:22;101183.25;;;7.00;95.41
17785;BME280;9016;53.582;10.062;2023-01-31T10:32:55;101167.06;;;7.08;96.67
17785;BME280;9016;53.582;10.062;2023-01-31T10:35:26;101168.53;;;7.15;96.52
17785;BME280;9016;53.582;10.062;2023-01-31T10:38:02;101166.44;;;7.23;96.60
17785;BME280;9016;53.582;10.062;2023-01-31T10:40:34;101152.03;;;7.30;96.22
17785;BME280;9016;53.582;10.062;2023-01-31T10:43:11;101156.22;;;7.36;96.08
17785;BME280;9016;53.582;10.062;2023-01-31T10:45:40;101137.66;;;7.36;95.73
17785;BME280;9016;53.582;10.062;2023-01-31T10:48:15;101143.63;;;7.41;95.77
17785;BME280;9016;53.582;10.062;2023-01-31T10:50:51;101123.53;;;7.35;96.20
17785;BME280;9016;53.582;10.062;2023-01-31T10:53:48;101129.50;;;7.40;96.14
17785;BME280;9016;53.582;10.062;2023-01-31T10:56:24;101127.41;;;7.48;96.12
17785;BME280;9016;53.582;10.062;2023-01-31T10:58:57;101111.59;;;7.47;95.82
17785;BME280;9016;53.582;10.062;2023-01-31T11:01:27;101120.91;;;7.35;96.49
17785;BME280;9016;53.582;10.062;2023-01-31T11:03:56;101112.03;;;7.56;98.57
17785;BME280;9016;53.582;10.062;2023-01-31T11:06:25;101096.00;;;7.59;97.40
17785;BME280;9016;53.582;10.062;2023-01-31T11:08:56;101088.66;;;7.66;97.03
17785;BME280;9016;53.582;10.062;2023-01-31T11:11:26;101089.59;;;7.65;96.92
17785;BME280;9016;53.582;10.062;2023-01-31T11:13:58;101113.06;;;7.74;96.86
17785;BME280;9016;53.582;10.062;2023-01-31T11:16:29;101114.66;;;7.98;96.55
17785;BME280;9016;53.582;10.062;2023-01-31T11:18:59;101116.91;;;8.07;94.71
17785;BME280;9016;53.582;10.062;2023-01-31T11:21:30;101113.13;;;8.13;93.39
17785;BME280;9016;53.582;10.062;2023-01-31T11:24:02;101099.59;;;8.19;93.62
17785;BME280;9016;53.582;10.062;2023-01-31T11:26:33;101099.78;;;8.14;94.45
17785;BME280;9016;53.582;10.062;2023-01-31T11:29:06;101089.16;;;8.34;93.11
17785;BME280;9016;53.582;10.062;2023-01-31T11:31:39;101092.47;;;8.39;93.19
17785;BME280;9016;53.582;10.062;2023-01-31T11:34:18;101090.03;;;8.15;92.84
17785;BME280;9016;53.582;10.062;2023-01-31T11:36:47;101081.41;;;7.89;94.93
17785;BME280;9016;53.582;10.062;2023-01-31T11:39:27;101091.03;;;7.92;96.15
17785;BME280;9016;53.582;10.062;2023-01-31T11:42:04;101080.50;;;7.90;96.89
17785;BME280;9016;53.582;10.062;2023-01-31T11:44:34;101070.38;;;7.80;98.17
17785;BME280;9016;53.582;10.062;2023-01-31T11:47:11;101072.81;;;7.84;97.97
17785;BME280;9016;53.582;10.062;2023-01-31T11:49:40;101074.53;;;7.85;97.75
17785;BME280;9016;53.582;10.062;2023-01-31T11:52:13;101056.53;;;7.92;98.95
17785;BME280;9016;53.582;10.062;2023-01-31T11:54:48;101055.16;;;8.03;98.67
17785;BME280;9016;53.582;10.062;2023-01-31T11:57:22;101050.03;;;7.99;98.56
17785;BME280;9016;53.582;10.062;2023-01-31T11:59:54;101050.25;;;7.94;98.77
17785;BME280;9016;53.582;10.062;2023-01-31T12:02:28;101047.88;;;7.88;98.85
17785;BME280;9016;53.582;10.062;2023-01-31T12:04:58;101038.78;;;7.94;100.00
17785;BME280;9016;53.582;10.062;2023-01-31T12:07:31;101033.81;;;7.86;100.00
17785;BME280;9016;53.582;10.062;2023-01-31T12:10:25;101040.56;;;7.93;100.00
17785;BME280;9016;53.582;10.062;2023-01-31T12:12:57;101033.66;;;8.10;100.00
17785;BME280;9016;53.582;10.062;2023-01-31T12:15:51;101025.97;;;8.03;100.00
17785;BME280;9016;53.582;10.062;2023-01-31T12:18:36;101031.50;;;8.18;100.00
17785;BME280;9016;53.582;10.062;2023-01-31T12:21:12;101021.81;;;8.17;100.00
17785;BME280;9016;53.582;10.062;2023-01-31T12:23:50;101031.38;;;8.21;99.20
17785;BME280;9016;53.582;10.062;2023-01-31T12:26:27;101020.47;;;8.27;99.33
17785;BME280;9016;53.582;10.062;2023-01-31T12:29:12;101020.69;;;8.22;98.73
17785;BME280;9016;53.582;10.062;2023-01-31T12:34:53;101010.66;;;8.29;99.02
17785;BME280;9016;53.582;10.062;2023-01-31T12:37:39;101008.16;;;8.44;99.56
17785;BME280;9016;53.582;10.062;2023-01-31T12:40:31;101009.88;;;8.45;98.74
17785;BME280;9016;53.582;10.062;2023-01-31T12:43:15;101001.91;;;8.45;98.00
17785;BME280;9016;53.582;10.062;2023-01-31T12:45:57;100996.31;;;8.51;98.40
17785;BME280;9016;53.582;10.062;2023-01-31T12:48:46;100996.16;;;8.54;97.56
17785;BME280;9016;53.582;10.062;2023-01-31T12:51:27;100994.97;;;8.43;98.14
17785;BME280;9016;53.582;10.062;2023-01-31T12:54:10;100990.13;;;8.51;98.03
17785;BME280;9016;53.582;10.062;2023-01-31T12:56:56;100985.09;;;8.45;98.77
17785;BME280;9016;53.582;10.062;2023-01-31T12:59:41;100972.84;;;8.42;99.20
17785;BME280;9016;53.582;10.062;2023-01-31T13:05:21;100968.97;;;8.49;99.41
17785;BME280;9016;53.582;10.062;2023-01-31T13:07:59;100963.56;;;8.51;98.77
17785;BME280;9016;53.582;10.062;2023-01-31T13:10:34;100960.78;;;8.54;99.64
17785;BME280;9016;53.582;10.062;2023-01-31T13:13:05;100957.25;;;8.53;99.64
17785;BME280;9016;53.582;10.062;2023-01-31T13:15:42;100942.91;;;8.57;99.88
17785;BME280;9016;53.582;10.062;2023-01-31T13:18:12;100940.78;;;8.64;98.90
17785;BME280;9016;53.582;10.062;2023-01-31T13:20:45;100957.81;;;8.60;98.78
17785;BME280;9016;53.582;10.062;2023-01-31T13:23:18;100962.81;;;8.66;99.05
17785;BME280;9016;53.582;10.062;2023-01-31T13:25:53;100969.31;;;8.60;98.61
17785;BME280;9016;53.582;10.062;2023-01-31T13:28:25;100964.41;;;8.70;99.32
17785;BME280;9016;53.582;10.062;2023-01-31T13:30:56;100968.56;;;8.75;98.25
17785;BME280;9016;53.582;10.062;2023-01-31T13:33:34;100954.13;;;8.81;98.51
17785;BME280;9016;53.582;10.062;2023-01-31T13:36:15;100958.81;;;8.76;97.67
17785;BME280;9016;53.582;10.062;2023-01-31T13:38:45;100961.13;;;8.82;97.76